Terminal Aerodrome Forecast
Issued by NWS Bismarck, ND

Home | Current Version | Previous Version | Graphics & Text | Print | Product List | Glossary On
Versions: 1 2 3 4 5 6 7 8 9 10 11 12 13 14 15 16 17 18 19 20 21 22 23
117
FTUS43 KBIS 151720
TAFBIS
TAF
KBIS 151720Z 1518/1618 35012G20KT 3SM -SN OVC025
     FM151900 34012G20KT 4SM BR VCSH OVC030
     FM152000 34012KT P6SM OVC060
     FM160200 27007KT P6SM FEW200=

USA.gov is the U.S. government's official web portal to all federal, state and local government web resources and services.